Time;durP1;ratioP1;P1;durP2;ratioP2;P2;SDS_P1;SDS_P2;PMS_P1;PMS_P2;Temp;Humidity;BMP_temperature;BMP_pressure;BME280_temperature;BME280_humidity;BME280_pressure;Samples;Min_cycle;Max_cycle;Signal;HPM_P1;HPM_P2
2023/12/27 00:00:15;;;;;;;28.60;13.05;;;;;;;-14.62;72.86;100716.66;5032765;28;20049;-63
2023/12/27 00:02:45;;;;;;;30.38;12.05;;;;;;;-14.93;72.02;100718.88;5015703;28;20081;-64
2023/12/27 00:05:16;;;;;;;29.55;13.43;;;;;;;-15.17;72.16;100716.59;5025038;28;20139;-64
2023/12/27 00:07:48;;;;;;;30.17;13.07;;;;;;;-15.12;72.54;100710.41;5016118;28;20063;-64
2023/12/27 00:10:18;;;;;;;28.80;12.25;;;;;;;-15.07;72.42;100711.72;5024009;28;20052;-63
2023/12/27 00:12:48;;;;;;;29.67;13.23;;;;;;;-15.04;72.39;100724.53;5014818;28;20284;-64
2023/12/27 00:15:19;;;;;;;30.83;11.63;;;;;;;-15.18;72.21;100719.88;5042551;28;20056;-63
2023/12/27 00:17:49;;;;;;;19.15;10.00;;;;;;;-15.28;71.94;100728.16;5034374;28;20048;-63
2023/12/27 00:20:20;;;;;;;20.52;9.50;;;;;;;-15.41;71.83;100721.13;5044162;28;20128;-64
2023/12/27 00:22:52;;;;;;;19.50;9.38;;;;;;;-15.25;72.22;100720.91;5034476;28;20522;-64
2023/12/27 00:25:22;;;;;;;18.67;10.02;;;;;;;-15.01;72.38;100729.81;5043929;28;20048;-64
2023/12/27 00:27:53;;;;;;;25.98;10.15;;;;;;;-14.61;72.74;100720.91;5034172;28;20042;-64
2023/12/27 00:30:23;;;;;;;20.23;10.27;;;;;;;-14.34;72.63;100722.47;5044493;28;20551;-64
2023/12/27 00:32:54;;;;;;;22.20;10.48;;;;;;;-14.21;72.13;100726.94;5034108;28;20112;-64
2023/12/27 00:35:24;;;;;;;20.45;9.68;;;;;;;-14.13;71.71;100724.34;5044433;28;20491;-64
2023/12/27 00:37:57;;;;;;;19.45;8.63;;;;;;;-14.13;71.20;100715.94;5034657;28;20064;-64
2023/12/27 00:40:27;;;;;;;28.20;9.35;;;;;;;-14.19;71.49;100715.44;5041256;28;20052;-63
2023/12/27 00:42:58;;;;;;;22.85;8.75;;;;;;;-13.97;72.10;100711.53;5053170;28;20079;-62
2023/12/27 00:45:28;;;;;;;21.33;9.43;;;;;;;-13.75;72.28;100705.84;5064120;28;20052;-63
2023/12/27 00:47:59;;;;;;;20.85;9.02;;;;;;;-13.64;72.33;100709.31;5053337;28;20046;-64
2023/12/27 00:50:30;;;;;;;18.27;9.27;;;;;;;-13.35;72.96;100696.72;5064075;28;20131;-65
2023/12/27 00:53:02;;;;;;;22.15;10.10;;;;;;;-13.12;73.01;100699.53;5039865;28;20044;-63
2023/12/27 00:55:32;;;;;;;18.50;9.98;;;;;;;-12.95;73.22;100692.50;5050453;28;20052;-64
2023/12/27 00:58:03;;;;;;;18.15;8.23;;;;;;;-12.74;72.95;100684.22;5033459;28;20055;-64
2023/12/27 01:00:33;;;;;;;26.75;9.55;;;;;;;-12.64;72.90;100686.75;5056980;28;20048;-64
2023/12/27 01:03:02;;;;;;;16.85;9.30;;;;;;;-12.47;72.71;100679.69;5044067;28;20057;-64
2023/12/27 01:05:33;;;;;;;21.05;9.13;;;;;;;-12.20;73.21;100684.44;5027470;28;20053;-65
2023/12/27 01:08:05;;;;;;;18.77;8.63;;;;;;;-12.03;73.46;100677.34;5034825;28;20048;-64
2023/12/27 01:10:36;;;;;;;23.50;10.45;;;;;;;-11.83;73.44;100682.31;5050045;28;20148;-64
2023/12/27 01:13:06;;;;;;;22.90;10.65;;;;;;;-11.67;73.15;100676.81;5048628;28;20045;-64
2023/12/27 01:15:37;;;;;;;26.75;10.73;;;;;;;-11.52;72.70;100672.09;5025809;28;20068;-65
2023/12/27 01:18:07;;;;;;;22.25;9.35;;;;;;;-11.53;72.41;100667.78;5011744;28;20053;-65
2023/12/27 01:20:38;;;;;;;26.38;10.30;;;;;;;-11.32;72.54;100666.94;5004703;28;20473;-64
2023/12/27 01:23:10;;;;;;;17.65;8.90;;;;;;;-11.02;72.36;100667.53;5018112;28;20429;-66
2023/12/27 01:25:40;;;;;;;19.80;9.32;;;;;;;-10.94;71.43;100671.50;5007075;28;20068;-67
2023/12/27 01:28:10;;;;;;;20.02;8.25;;;;;;;-11.05;71.28;100672.34;5019302;28;20051;-66
2023/12/27 01:30:41;;;;;;;25.85;8.05;;;;;;;-11.01;71.62;100664.22;5007768;28;20055;-67
2023/12/27 01:33:11;;;;;;;23.77;9.15;;;;;;;-11.14;71.26;100666.59;5016800;28;20052;-64
2023/12/27 01:35:42;;;;;;;17.88;8.65;;;;;;;-11.01;71.93;100654.13;5004772;28;20132;-66
2023/12/27 01:38:14;;;;;;;21.10;7.22;;;;;;;-10.66;72.12;100654.25;5016582;28;20405;-64
2023/12/27 01:40:50;;;;;;;23.02;9.07;;;;;;;-10.76;70.36;100650.91;4999589;28;20059;-63
2023/12/27 01:43:20;;;;;;;17.63;8.70;;;;;;;-11.05;69.68;100657.19;5012022;28;20059;-65
2023/12/27 01:45:52;;;;;;;25.17;10.18;;;;;;;-10.95;70.01;100659.66;5007286;28;20052;-65
2023/12/27 01:48:23;;;;;;;17.95;7.95;;;;;;;-10.91;70.58;100650.66;5017941;28;20063;-63
2023/12/27 01:50:55;;;;;;;18.23;8.85;;;;;;;-10.70;70.83;100632.06;5013825;28;20501;-64
2023/12/27 01:53:27;;;;;;;18.83;8.88;;;;;;;-10.50;70.38;100646.16;5018964;28;20057;-65
2023/12/27 01:55:58;;;;;;;20.98;9.25;;;;;;;-10.64;69.90;100646.78;5000554;28;20147;-64
2023/12/27 01:58:29;;;;;;;24.88;9.48;;;;;;;-10.80;68.78;100648.94;5023509;28;20059;-64
2023/12/27 02:00:59;;;;;;;17.52;8.13;;;;;;;-10.71;69.22;100644.56;5005571;28;20052;-64
2023/12/27 02:03:30;;;;;;;23.30;8.90;;;;;;;-10.57;69.02;100649.00;5020331;28;20106;-63
2023/12/27 02:06:02;;;;;;;18.48;9.23;;;;;;;-10.43;68.01;100647.50;5013112;28;20739;-65
2023/12/27 02:08:34;;;;;;;19.35;9.35;;;;;;;-10.57;67.99;100643.94;5020542;28;20572;-65
2023/12/27 02:11:05;;;;;;;26.88;10.38;;;;;;;-10.42;68.26;100640.00;5021966;28;20045;-64
2023/12/27 02:13:35;;;;;;;24.15;9.55;;;;;;;-10.22;67.78;100653.19;5012924;28;20061;-67
2023/12/27 02:16:06;;;;;;;18.50;9.85;;;;;;;-10.07;67.66;100651.75;5039564;28;20560;-64
2023/12/27 02:18:37;;;;;;;21.77;9.20;;;;;;;-9.93;67.37;100641.75;5052095;28;20084;-64
2023/12/27 02:21:08;;;;;;;20.98;9.05;;;;;;;-10.08;66.69;100642.44;5062210;28;20064;-64
2023/12/27 02:23:43;;;;;;;29.98;9.55;;;;;;;-10.14;66.62;100634.38;5051562;28;20048;-65
2023/12/27 02:26:15;;;;;;;21.67;8.40;;;;;;;-10.04;68.01;100629.22;5062119;28;20058;-62
2023/12/27 02:28:45;;;;;;;19.58;8.52;;;;;;;-9.59;68.34;100622.22;5050455;28;20054;-62
2023/12/27 02:31:15;;;;;;;22.90;9.48;;;;;;;-9.14;68.55;100614.38;5062168;28;20056;-64
2023/12/27 02:33:46;;;;;;;18.48;9.10;;;;;;;-9.26;66.70;100621.16;5053999;28;20055;-63
2023/12/27 02:36:17;;;;;;;18.20;9.10;;;;;;;-9.14;66.67;100631.22;5065917;28;20048;-66
2023/12/27 02:38:47;;;;;;;20.52;8.82;;;;;;;-9.01;66.37;100622.81;5055300;28;20044;-65
2023/12/27 02:41:19;;;;;;;25.90;9.52;;;;;;;-8.64;67.44;100625.25;5049109;28;20110;-64
2023/12/27 02:43:49;;;;;;;22.70;10.73;;;;;;;-8.19;67.82;100621.38;5036455;28;20066;-66
2023/12/27 02:46:20;;;;;;;23.58;13.20;;;;;;;-7.78;68.45;100620.59;5046505;28;20596;-65
2023/12/27 02:48:50;;;;;;;24.77;10.90;;;;;;;-7.56;67.98;100613.53;5036037;28;20485;-65
2023/12/27 02:51:21;;;;;;;18.13;7.85;;;;;;;-7.35;67.13;100623.25;5037528;28;20087;-64
2023/12/27 02:53:51;;;;;;;13.18;6.25;;;;;;;-7.29;66.06;100611.78;5016801;28;20425;-65
2023/12/27 02:56:23;;;;;;;14.13;6.65;;;;;;;-7.19;65.15;100610.66;5052458;28;20070;-63
2023/12/27 02:58:53;;;;;;;10.68;5.85;;;;;;;-7.25;64.43;100610.31;5055947;28;20060;-64
2023/12/27 03:01:24;;;;;;;10.35;5.55;;;;;;;-7.13;64.51;100595.81;5057892;28;20059;-65
2023/12/27 03:03:54;;;;;;;28.58;11.70;;;;;;;-7.11;63.78;100599.34;5051669;28;21291;-65
2023/12/27 03:06:24;;;;;;;38.90;10.75;;;;;;;-7.23;63.23;100598.59;5061820;28;20365;-65
2023/12/27 03:08:55;;;;;;;26.92;9.80;;;;;;;-7.05;64.27;100594.59;5047630;28;20056;-66
2023/12/27 03:11:27;;;;;;;27.70;11.73;;;;;;;-6.77;65.70;100588.59;5062084;28;20495;-64
2023/12/27 03:13:57;;;;;;;21.85;10.25;;;;;;;-6.58;65.41;100583.78;5051398;28;20172;-65
2023/12/27 03:16:28;;;;;;;20.90;8.68;;;;;;;-6.67;65.73;100532.41;5061584;28;21025;-64
2023/12/27 03:18:57;;;;;;;20.10;8.70;;;;;;;-6.15;67.07;100578.56;5046443;28;20185;-63
2023/12/27 03:21:28;;;;;;;20.17;9.57;;;;;;;-5.91;66.89;100585.78;5061308;28;20147;-64
2023/12/27 03:23:58;;;;;;;20.15;9.63;;;;;;;-5.91;65.41;100585.78;5050525;28;20051;-63
2023/12/27 03:26:31;;;;;;;18.30;8.18;;;;;;;-5.89;64.14;100589.25;5061537;28;20047;-63
2023/12/27 03:29:01;;;;;;;10.75;5.82;;;;;;;-5.94;62.94;100590.72;5043444;28;20048;-64
2023/12/27 03:31:31;;;;;;;11.10;5.63;;;;;;;-6.03;61.73;100590.22;5061234;28;20127;-64
2023/12/27 03:34:02;;;;;;;11.48;6.03;;;;;;;-6.16;61.39;100587.00;5046958;28;20388;-64
2023/12/27 03:36:32;;;;;;;11.73;5.95;;;;;;;-6.27;60.79;100585.50;5059805;28;20101;-64
2023/12/27 03:39:03;;;;;;;12.93;6.20;;;;;;;-6.39;60.39;100585.72;5057538;28;20113;-65
2023/12/27 03:41:35;;;;;;;11.30;5.72;;;;;;;-6.48;60.41;100585.19;5056226;28;20052;-66
2023/12/27 03:44:05;;;;;;;13.50;5.60;;;;;;;-6.52;60.12;100586.66;5061612;28;20714;-65
2023/12/27 03:46:36;;;;;;;20.70;7.93;;;;;;;-6.87;60.74;100578.69;5050611;28;20162;-65
2023/12/27 03:49:06;;;;;;;11.13;5.43;;;;;;;-6.97;60.88;100578.13;5060918;28;20040;-66
2023/12/27 03:51:36;;;;;;;10.77;5.32;;;;;;;-6.97;60.48;100578.13;5050518;28;20378;-66
2023/12/27 03:54:07;;;;;;;9.48;4.65;;;;;;;-6.99;59.90;100567.03;5060166;28;20048;-64
2023/12/27 03:56:39;;;;;;;7.90;4.40;;;;;;;-7.09;59.99;100574.88;5046907;28;20048;-65
2023/12/27 03:59:09;;;;;;;10.63;5.25;;;;;;;-7.28;59.46;100579.69;5060621;28;20089;-66
2023/12/27 04:01:40;;;;;;;9.82;5.13;;;;;;;-7.37;59.82;100579.97;5048463;28;20523;-64
2023/12/27 04:04:13;;;;;;;12.18;5.97;;;;;;;-7.62;60.42;100531.94;5056862;28;20051;-68
2023/12/27 04:06:44;;;;;;;13.45;5.95;;;;;;;-7.58;60.48;100551.66;5046935;28;20071;-65
2023/12/27 04:09:14;;;;;;;20.52;9.18;;;;;;;-7.55;61.13;100574.69;5060661;28;20088;-66
2023/12/27 04:11:47;;;;;;;30.27;10.70;;;;;;;-7.53;62.22;100570.56;5050245;28;20047;-65
2023/12/27 04:14:18;;;;;;;30.25;11.05;;;;;;;-7.52;61.85;100574.84;5058902;28;20047;-67
2023/12/27 04:16:48;;;;;;;26.52;11.10;;;;;;;-7.45;61.75;100576.97;5035124;28;20374;-66
2023/12/27 04:19:18;;;;;;;30.83;12.23;;;;;;;-7.47;60.98;100573.47;5041080;28;20849;-65
2023/12/27 04:21:49;;;;;;;22.10;10.35;;;;;;;-7.43;61.48;100575.41;5030432;28;20055;-66
2023/12/27 04:24:19;;;;;;;26.30;10.35;;;;;;;-7.18;61.96;100576.91;5040642;28;20752;-66
2023/12/27 04:26:50;;;;;;;21.50;9.35;;;;;;;-7.06;61.99;100575.09;5030293;28;20044;-67
2023/12/27 04:29:21;;;;;;;24.15;10.15;;;;;;;-6.68;62.67;100585.72;5040624;28;20435;-67
2023/12/27 04:31:51;;;;;;;19.30;10.15;;;;;;;-6.58;61.89;100588.88;5031154;28;20052;-66
2023/12/27 04:34:22;;;;;;;18.75;8.35;;;;;;;-6.47;61.50;100588.59;5040501;28;20151;-66
2023/12/27 04:36:52;;;;;;;15.95;7.38;;;;;;;-6.55;61.06;100589.03;5030125;28;20595;-66
2023/12/27 04:39:23;;;;;;;17.88;7.50;;;;;;;-6.61;61.29;100592.91;5040368;28;20058;-67
2023/12/27 04:41:55;;;;;;;15.68;7.60;;;;;;;-6.75;60.90;100594.66;5030293;28;20057;-66
2023/12/27 04:44:25;;;;;;;13.63;7.40;;;;;;;-6.68;61.49;100590.81;5040318;28;20059;-66
2023/12/27 04:46:55;;;;;;;15.05;7.18;;;;;;;-6.60;61.11;100595.53;5030503;28;20048;-66
2023/12/27 04:49:26;;;;;;;13.23;7.30;;;;;;;-6.56;61.10;100587.31;5040730;28;20464;-64
2023/12/27 04:51:57;;;;;;;13.95;7.13;;;;;;;-6.58;60.97;100609.22;5030502;28;20064;-65
2023/12/27 04:54:27;;;;;;;14.70;6.90;;;;;;;-6.70;60.86;100605.97;5039844;28;20052;-66
2023/12/27 04:56:59;;;;;;;15.50;7.00;;;;;;;-6.71;61.56;100604.22;5029251;28;20117;-67
2023/12/27 04:59:30;;;;;;;15.40;7.93;;;;;;;-6.56;62.97;100616.94;5039769;28;20163;-64
2023/12/27 05:02:00;;;;;;;18.33;9.32;;;;;;;-6.58;63.42;100616.84;5022872;28;20052;-65
2023/12/27 05:04:31;;;;;;;24.08;9.25;;;;;;;-6.65;63.35;100617.25;5039689;28;20143;-66
2023/12/27 05:07:01;;;;;;;18.08;8.25;;;;;;;-6.72;63.07;100615.16;5029473;28;20704;-66
2023/12/27 05:09:32;;;;;;;14.45;7.95;;;;;;;-7.15;62.91;100582.16;5039745;28;20056;-66
2023/12/27 05:12:04;;;;;;;15.13;7.45;;;;;;;-6.95;62.52;100612.13;5030164;28;20056;-64
2023/12/27 05:14:34;;;;;;;28.55;10.40;;;;;;;-7.04;62.41;100616.69;5029671;28;20062;-64
2023/12/27 05:17:05;;;;;;;41.05;14.30;;;;;;;-7.12;62.13;100612.78;5039724;28;20052;-66
2023/12/27 05:19:39;;;;;;;35.03;13.18;;;;;;;-7.08;62.84;100624.91;5030051;28;20056;-66
2023/12/27 05:22:10;;;;;;;36.35;15.40;;;;;;;-6.98;63.79;100621.25;5039324;28;20063;-66
2023/12/27 05:24:42;;;;;;;29.98;13.13;;;;;;;-6.90;64.50;100621.72;5029617;28;20056;-64
2023/12/27 05:27:14;;;;;;;29.50;11.75;;;;;;;-6.95;63.87;100624.84;5039219;28;20102;-65
2023/12/27 05:29:45;;;;;;;30.85;12.30;;;;;;;-7.03;63.34;100633.69;5029368;28;20049;-66
2023/12/27 05:32:15;;;;;;;25.25;12.13;;;;;;;-7.09;63.46;100628.22;5039009;28;20384;-66
2023/12/27 05:34:46;;;;;;;24.65;10.40;;;;;;;-7.19;63.55;100631.88;5030164;28;20072;-65
2023/12/27 05:37:16;;;;;;;22.73;9.70;;;;;;;-7.38;63.10;100634.97;5039592;28;20055;-66
2023/12/27 05:39:46;;;;;;;21.00;9.43;;;;;;;-7.61;62.83;100635.22;5029741;28;20385;-65
2023/12/27 05:42:18;;;;;;;15.75;7.82;;;;;;;-7.70;63.11;100637.19;5039087;28;20048;-66
2023/12/27 05:44:49;;;;;;;13.73;8.07;;;;;;;-7.79;63.32;100632.38;5029359;28;20071;-65
2023/12/27 05:47:20;;;;;;;22.10;10.40;;;;;;;-7.87;63.69;100647.13;5039401;28;20144;-66
2023/12/27 05:49:50;;;;;;;24.50;11.77;;;;;;;-8.08;63.61;100643.25;5029402;28;20465;-63
2023/12/27 05:52:21;;;;;;;22.50;10.40;;;;;;;-8.08;64.08;100659.34;5039230;28;20118;-63
2023/12/27 05:54:52;;;;;;;22.60;9.18;;;;;;;-8.49;64.13;100600.91;5028984;28;20139;-64
2023/12/27 05:57:24;;;;;;;23.73;10.38;;;;;;;-8.28;64.70;100658.03;5038713;28;20086;-64
2023/12/27 05:59:54;;;;;;;20.63;9.60;;;;;;;-8.39;64.84;100648.84;5029747;28;21054;-64
2023/12/27 06:02:25;;;;;;;20.90;8.32;;;;;;;-8.84;64.90;100622.28;5038967;28;20788;-64
2023/12/27 06:04:57;;;;;;;30.85;12.40;;;;;;;-8.84;64.83;100657.72;5029449;28;20052;-65
2023/12/27 06:07:28;;;;;;;37.63;16.35;;;;;;;-8.90;65.41;100667.47;5040821;28;20052;-64
2023/12/27 06:09:58;;;;;;;56.28;23.05;;;;;;;-8.96;65.88;100667.03;5032541;28;20056;-64
2023/12/27 06:12:30;;;;;;;59.53;24.73;;;;;;;-9.08;66.18;100662.03;5042219;28;20742;-63
2023/12/27 06:15:01;;;;;;;36.28;16.98;;;;;;;-9.16;66.52;100674.19;5025140;28;20059;-63
2023/12/27 06:17:32;;;;;;;31.48;13.43;;;;;;;-9.42;65.98;100674.00;5039668;28;20080;-65
2023/12/27 06:20:04;;;;;;;33.75;13.05;;;;;;;-9.64;66.09;100680.09;5025645;28;20048;-66
2023/12/27 06:22:34;;;;;;;29.88;11.25;;;;;;;-9.95;66.21;100678.69;5033355;28;20056;-67
2023/12/27 06:25:05;;;;;;;32.45;10.82;;;;;;;-10.36;66.80;100679.13;5042609;28;20082;-66
2023/12/27 06:27:38;;;;;;;25.33;10.77;;;;;;;-10.80;67.92;100679.25;5032066;28;20143;-66
2023/12/27 06:30:09;;;;;;;18.35;6.70;;;;;;;-11.10;69.25;100688.78;5041961;28;20054;-65
2023/12/27 06:32:40;;;;;;;12.05;6.10;;;;;;;-11.21;70.21;100694.63;5032449;28;20053;-65
2023/12/27 06:35:10;;;;;;;14.80;6.30;;;;;;;-11.11;71.45;100681.94;5042335;28;20041;-66
2023/12/27 06:37:41;;;;;;;11.20;6.03;;;;;;;-11.25;71.48;100680.03;5032482;28;20101;-67
2023/12/27 06:40:15;;;;;;;15.68;7.85;;;;;;;-11.53;71.59;100686.34;5042115;28;20059;-64
2023/12/27 06:42:47;;;;;;;15.07;7.43;;;;;;;-11.92;71.97;100684.13;5032696;28;20040;-65
2023/12/27 06:45:18;;;;;;;16.77;7.28;;;;;;;-12.05;73.02;100686.44;5042277;28;20044;-65
2023/12/27 06:47:49;;;;;;;18.55;8.43;;;;;;;-12.01;74.04;100681.75;5032235;28;20986;-65
2023/12/27 06:50:19;;;;;;;12.48;5.88;;;;;;;-11.93;74.68;100687.38;5042609;28;20048;-65
2023/12/27 06:52:50;;;;;;;9.63;5.22;;;;;;;-12.08;74.41;100691.22;5033168;28;20138;-65
2023/12/27 06:55:21;;;;;;;13.88;6.22;;;;;;;-12.81;73.63;100642.56;5042085;28;20048;-64
2023/12/27 06:57:53;;;;;;;15.57;5.93;;;;;;;-12.78;74.20;100678.81;5031763;28;20125;-65
2023/12/27 07:00:24;;;;;;;11.95;5.40;;;;;;;-12.89;75.49;100682.94;5042825;28;20053;-64
2023/12/27 07:02:55;;;;;;;10.15;6.45;;;;;;;-12.97;76.05;100689.00;5032654;28;20061;-65
2023/12/27 07:05:25;;;;;;;24.33;12.70;;;;;;;-13.11;76.47;100696.25;5042298;28;20045;-65
2023/12/27 07:07:56;;;;;;;16.95;10.43;;;;;;;-13.28;76.60;100701.50;5033269;28;20109;-65
2023/12/27 07:10:27;;;;;;;13.70;8.43;;;;;;;-13.44;77.44;100713.56;5043186;28;20063;-64
2023/12/27 07:12:59;;;;;;;14.50;7.30;;;;;;;-13.29;78.12;100719.88;5032270;28;20052;-65
2023/12/27 07:15:30;;;;;;;13.70;6.95;;;;;;;-13.45;77.33;100722.72;5044640;28;20091;-65
2023/12/27 07:18:01;;;;;;;11.15;7.80;;;;;;;-13.57;76.99;100727.56;5060419;28;20067;-64
2023/12/27 07:20:32;;;;;;;14.32;6.85;;;;;;;-13.85;76.67;100713.34;5057596;28;20135;-65
2023/12/27 07:23:03;;;;;;;14.77;7.28;;;;;;;-13.87;77.05;100712.34;5062029;28;20060;-65
2023/12/27 07:25:33;;;;;;;13.25;6.97;;;;;;;-13.96;77.25;100720.84;5052409;28;20408;-65
2023/12/27 07:28:06;;;;;;;23.08;9.57;;;;;;;-14.10;77.64;100726.28;5060908;28;20601;-64
2023/12/27 07:30:36;;;;;;;16.48;9.50;;;;;;;-14.16;78.10;100725.72;5051119;28;20538;-65
2023/12/27 07:33:07;;;;;;;22.42;12.57;;;;;;;-14.12;78.46;100737.81;5061333;28;20488;-65
2023/12/27 07:35:38;;;;;;;18.83;8.55;;;;;;;-14.08;78.84;100739.84;5050444;28;20455;-65
2023/12/27 07:38:08;;;;;;;8.23;5.70;;;;;;;-14.08;78.97;100739.84;5060970;28;20163;-64
2023/12/27 07:40:38;;;;;;;9.65;5.13;;;;;;;-14.10;79.24;100746.38;5051540;28;20137;-65
2023/12/27 07:43:11;;;;;;;7.63;4.63;;;;;;;-14.22;79.15;100740.25;5060931;28;20070;-64
2023/12/27 07:45:41;;;;;;;11.73;5.28;;;;;;;-14.39;79.25;100736.25;5050538;28;20060;-64
2023/12/27 07:48:12;;;;;;;7.75;5.57;;;;;;;-14.57;80.20;100735.50;5057656;28;20316;-64
2023/12/27 07:50:45;;;;;;;8.07;5.28;;;;;;;-14.59;81.25;100739.50;5051041;28;20043;-65
2023/12/27 07:53:16;;;;;;;8.00;5.57;;;;;;;-14.51;82.20;100736.00;5060262;28;20052;-64
2023/12/27 07:55:46;;;;;;;7.00;4.25;;;;;;;-14.35;83.57;100744.19;5050911;28;20145;-65
2023/12/27 07:58:20;;;;;;;6.53;4.38;;;;;;;-14.25;83.37;100745.00;5060578;28;20911;-65
2023/12/27 08:00:50;;;;;;;9.63;4.10;;;;;;;-14.26;83.13;100739.09;5050439;28;20056;-65
2023/12/27 08:03:20;;;;;;;7.07;4.88;;;;;;;-14.21;83.51;100737.00;5060597;28;20059;-65
2023/12/27 08:05:51;;;;;;;8.43;4.95;;;;;;;-14.22;83.37;100745.28;5050062;28;20055;-65
2023/12/27 08:08:22;;;;;;;16.58;8.20;;;;;;;-14.19;83.40;100750.56;5058215;28;20774;-65
2023/12/27 08:10:52;;;;;;;14.55;7.57;;;;;;;-14.07;83.71;100751.66;5050069;28;20045;-65
2023/12/27 08:13:24;;;;;;;11.70;5.55;;;;;;;-14.01;83.72;100757.22;5056567;28;20065;-65
2023/12/27 08:15:55;;;;;;;54.03;23.08;;;;;;;-14.12;83.13;100760.41;5042181;28;20068;-65
2023/12/27 08:18:25;;;;;;;99.18;42.22;;;;;;;-14.16;83.11;100759.25;5041478;28;20056;-65
2023/12/27 08:20:57;;;;;;;17.10;7.88;;;;;;;-14.12;82.88;100762.94;5030246;28;20053;-65
2023/12/27 08:23:28;;;;;;;14.02;6.22;;;;;;;-14.08;82.83;100764.94;5040699;28;20048;-65
2023/12/27 08:25:59;;;;;;;36.38;17.08;;;;;;;-14.22;81.85;100765.38;5030674;28;20048;-63
2023/12/27 08:28:31;;;;;;;11.45;6.95;;;;;;;-14.49;81.08;100759.63;5041202;28;20525;-65
2023/12/27 08:31:01;;;;;;;11.13;6.97;;;;;;;-14.58;81.20;100761.31;5025459;28;21139;-65
2023/12/27 08:33:32;;;;;;;7.72;5.53;;;;;;;-14.70;80.90;100772.75;5039408;28;20060;-65
2023/12/27 08:36:03;;;;;;;7.07;4.80;;;;;;;-14.72;81.33;100775.13;5030255;28;20060;-65
2023/12/27 08:38:33;;;;;;;8.43;5.43;;;;;;;-14.87;81.17;100753.69;5033924;28;20056;-65
2023/12/27 08:41:04;;;;;;;7.53;4.80;;;;;;;-14.64;81.94;100769.19;5040478;28;20098;-65
2023/12/27 08:43:37;;;;;;;12.85;8.18;;;;;;;-14.44;82.77;100767.56;5030046;28;20131;-65
2023/12/27 08:46:10;;;;;;;21.63;11.63;;;;;;;-14.25;82.61;100765.06;5040371;28;20052;-65
2023/12/27 08:48:41;;;;;;;74.18;33.55;;;;;;;-14.24;82.51;100772.75;5029790;28;20411;-66
2023/12/27 08:51:12;;;;;;;28.35;15.98;;;;;;;-14.24;82.58;100767.72;5039932;28;20067;-65
2023/12/27 08:53:42;;;;;;;21.17;13.40;;;;;;;-14.20;83.05;100773.91;5029460;28;20476;-65
2023/12/27 08:56:12;;;;;;;16.67;8.98;;;;;;;-14.10;83.40;100766.47;5039952;28;20472;-65
2023/12/27 08:58:45;;;;;;;8.65;5.65;;;;;;;-14.06;83.28;100763.47;5029973;28;20069;-65
2023/12/27 09:01:16;;;;;;;9.07;6.28;;;;;;;-14.07;83.31;100765.84;5040434;28;20052;-63
2023/12/27 09:03:48;;;;;;;9.88;6.40;;;;;;;-13.95;83.62;100767.81;5030051;28;20118;-66
2023/12/27 09:06:19;;;;;;;13.45;6.47;;;;;;;-13.85;83.47;100758.56;5040008;28;20247;-63
2023/12/27 09:08:50;;;;;;;8.23;5.13;;;;;;;-13.92;83.00;100762.19;5029516;28;20098;-65
2023/12/27 09:11:20;;;;;;;12.32;5.60;;;;;;;-13.95;82.66;100767.81;5039994;28;20435;-66
2023/12/27 09:14:12;;;;;;;7.78;4.72;;;;;;;-14.36;82.47;100686.31;5029177;28;20068;-63
2023/12/27 09:16:43;;;;;;;11.80;5.88;;;;;;;-13.96;81.93;100766.03;5040424;28;20837;-66
2023/12/27 09:19:13;;;;;;;9.65;5.13;;;;;;;-13.97;81.48;100769.31;5058600;28;20051;-66
2023/12/27 09:21:45;;;;;;;9.48;5.18;;;;;;;-14.01;80.89;100771.41;5048762;28;20079;-62
2023/12/27 09:24:16;;;;;;;9.65;5.03;;;;;;;-14.08;80.49;100764.94;5058694;28;20131;-65
2023/12/27 09:26:49;;;;;;;9.65;4.97;;;;;;;-14.27;79.67;100775.00;5045157;28;20048;-66
2023/12/27 09:29:21;;;;;;;86.80;40.05;;;;;;;-14.45;79.70;100771.72;5057554;28;20645;-66
2023/12/27 09:31:51;;;;;;;49.35;22.73;;;;;;;-14.57;80.00;100781.56;5048773;28;20075;-66
2023/12/27 09:34:22;;;;;;;41.58;18.67;;;;;;;-14.51;80.61;100775.28;5059116;28;20726;-66
2023/12/27 09:36:52;;;;;;;37.63;20.58;;;;;;;-14.45;81.06;100791.78;5049194;28;20095;-66
2023/12/27 09:39:23;;;;;;;18.38;10.75;;;;;;;-14.39;81.04;100802.38;5055872;28;20052;-63
2023/12/27 09:41:53;;;;;;;17.08;8.35;;;;;;;-14.35;80.66;100801.91;5045447;28;20448;-66
2023/12/27 09:44:26;;;;;;;14.60;8.13;;;;;;;-14.30;80.53;100801.44;5059095;28;20086;-65
2023/12/27 09:47:00;;;;;;;16.33;8.05;;;;;;;-14.30;80.37;100803.94;5049047;28;20109;-64
2023/12/27 09:49:32;;;;;;;16.50;6.60;;;;;;;-14.36;79.73;100790.09;5058659;28;20060;-64
2023/12/27 09:52:03;;;;;;;16.85;7.15;;;;;;;-14.69;78.61;100804.63;5044583;28;20056;-64
2023/12/27 09:54:33;;;;;;;17.48;8.68;;;;;;;-14.86;78.51;100796.44;5054825;28;20088;-64
2023/12/27 09:57:04;;;;;;;32.25;13.95;;;;;;;-14.87;79.02;100794.69;5058851;28;20478;-64
2023/12/27 09:59:42;;;;;;;73.82;26.58;;;;;;;-14.96;79.68;100758.72;5048569;28;20384;-64
2023/12/27 10:02:18;;;;;;;127.55;42.25;;;;;;;-15.01;80.08;100732.34;5059156;28;20066;-64
2023/12/27 10:04:59;;;;;;;116.32;39.17;;;;;;;-14.53;80.55;100797.75;5048971;28;20057;-64
2023/12/27 10:07:29;;;;;;;;;;;;;;;-14.42;80.62;100802.09;5058603;28;20059;-63
2023/12/27 10:10:01;;;;;;;112.05;38.42;;;;;;;-14.45;80.43;100795.91;5048000;28;19963;-64
2023/12/27 10:12:50;;;;;;;121.97;39.88;;;;;;;-14.42;80.37;100797.09;5047474;28;20080;-64
2023/12/27 10:15:22;;;;;;;55.03;19.55;;;;;;;-14.42;80.34;100796.22;5057197;28;20056;-64
2023/12/27 10:17:53;;;;;;;34.25;14.63;;;;;;;-14.75;80.14;100739.72;5044932;28;20057;-64
2023/12/27 10:20:36;;;;;;;26.13;12.55;;;;;;;-14.44;80.11;100791.03;5059190;28;20519;-64
2023/12/27 10:23:07;;;;;;;37.75;21.27;;;;;;;-14.52;80.08;100786.97;5041937;28;20059;-64
2023/12/27 10:25:40;;;;;;;28.75;13.40;;;;;;;-14.53;80.30;100781.81;5045461;28;20060;-64
2023/12/27 10:28:10;;;;;;;19.08;10.40;;;;;;;-14.62;80.32;100781.88;5058297;28;20098;-65
2023/12/27 10:30:42;;;;;;;19.17;11.73;;;;;;;-14.70;80.07;100782.78;5044418;28;20484;-64
2023/12/27 10:33:13;;;;;;;206.60;97.57;;;;;;;-14.97;79.96;100782.03;5054937;28;20043;-64
2023/12/27 10:35:50;;;;;;;43.97;22.63;;;;;;;-15.19;81.15;100759.09;5047831;28;20502;-64
2023/12/27 10:38:20;;;;;;;22.90;13.02;;;;;;;-15.16;81.55;100778.56;5058500;28;20056;-64
2023/12/27 10:40:53;;;;;;;15.38;8.73;;;;;;;-15.22;82.26;100779.75;5048245;28;20056;-64
2023/12/27 10:43:26;;;;;;;12.52;7.93;;;;;;;-15.10;82.87;100784.13;5055496;28;20051;-64
2023/12/27 10:45:58;;;;;;;12.10;6.68;;;;;;;-15.00;84.03;100781.72;5045071;28;20056;-64
2023/12/27 10:48:34;;;;;;;12.50;7.07;;;;;;;-14.95;84.22;100777.13;5058630;28;20067;-63
2023/12/27 10:51:05;;;;;;;11.68;6.45;;;;;;;-14.90;84.60;100769.31;5047221;28;20089;-64
2023/12/27 10:53:36;;;;;;;16.23;7.43;;;;;;;-14.89;84.57;100770.19;5048941;28;20440;-64
2023/12/27 10:56:09;;;;;;;14.48;7.45;;;;;;;-14.93;84.55;100774.03;5062140;28;20051;-64
2023/12/27 10:58:43;;;;;;;11.73;6.30;;;;;;;-15.02;84.25;100773.19;5051896;28;20066;-64
2023/12/27 11:01:16;;;;;;;7.80;5.50;;;;;;;-15.12;84.29;100770.56;5060965;28;20113;-64
2023/12/27 11:03:48;;;;;;;10.38;6.00;;;;;;;-15.19;84.65;100770.75;5049848;28;20063;-64
2023/12/27 11:06:19;;;;;;;8.15;5.63;;;;;;;-15.28;84.89;100779.16;5061407;28;20851;-64
2023/12/27 11:08:52;;;;;;;17.67;8.70;;;;;;;-15.31;85.12;100783.88;5049361;28;20068;-64
2023/12/27 11:11:26;;;;;;;16.52;8.07;;;;;;;-15.29;85.51;100791.56;5060919;28;20590;-64
2023/12/27 11:14:00;;;;;;;13.73;8.05;;;;;;;-15.24;85.78;100803.78;5051924;28;20056;-64
2023/12/27 11:16:35;;;;;;;13.88;8.30;;;;;;;-15.01;86.53;100800.03;5061255;28;20097;-64
2023/12/27 11:19:06;;;;;;;18.27;10.38;;;;;;;-14.69;86.93;100814.66;5051546;28;20454;-64
2023/12/27 11:21:40;;;;;;;19.17;9.30;;;;;;;-14.58;86.44;100806.50;5051311;28;20050;-65
2023/12/27 11:24:11;;;;;;;20.95;12.38;;;;;;;-14.31;86.29;100819.75;5058164;28;20063;-64
2023/12/27 11:26:44;;;;;;;17.42;10.15;;;;;;;-14.27;85.46;100826.84;5050709;28;20160;-65